createdAt,value
2018-07-27T00:00:16.261Z,25.31
2018-07-27T00:01:15.727Z,25.31
2018-07-27T00:02:15.985Z,25.25
2018-07-27T00:03:15.980Z,25.24
2018-07-27T00:04:16.238Z,25.28
2018-07-27T00:05:15.970Z,25.17
2018-07-27T00:06:16.222Z,25.17
2018-07-27T00:07:15.954Z,25.12
2018-07-27T00:08:15.687Z,25.12
2018-07-27T00:09:15.677Z,25.16
2018-07-27T00:10:16.202Z,25.09
2018-07-27T00:11:15.668Z,25.09
2018-07-27T00:12:15.922Z,25.05
2018-07-27T00:13:15.935Z,25
2018-07-27T00:14:15.848Z,25.09
2018-07-27T00:15:15.639Z,24.95
2018-07-27T00:16:15.892Z,25.06
2018-07-27T00:17:15.628Z,25.01
2018-07-27T00:18:15.883Z,25.01
2018-07-27T00:19:15.878Z,25.01
2018-07-27T00:20:16.140Z,24.95
2018-07-27T00:21:15.608Z,24.97
2018-07-27T00:22:15.598Z,24.94
2018-07-27T00:23:16.125Z,24.94
2018-07-27T00:24:15.589Z,24.91
2018-07-27T00:25:15.837Z,24.79
2018-07-27T00:26:15.836Z,24.82
2018-07-27T00:27:16.088Z,24.79
2018-07-27T00:28:16.095Z,24.8
2018-07-27T00:29:15.815Z,24.8
2018-07-27T00:30:15.813Z,24.76
2018-07-27T00:31:15.545Z,24.8
2018-07-27T00:32:15.804Z,24.85
2018-07-27T00:33:15.789Z,24.83
2018-07-27T00:34:15.524Z,24.71
2018-07-27T00:35:15.509Z,24.75
2018-07-27T00:36:15.502Z,24.76
2018-07-27T00:37:16.031Z,24.77
2018-07-27T00:38:15.489Z,24.75
2018-07-27T00:39:16.017Z,24.63
2018-07-27T00:40:15.747Z,24.64
2018-07-27T00:41:15.741Z,24.64
2018-07-27T00:42:16.009Z,24.69
2018-07-27T00:43:15.460Z,24.64
2018-07-27T00:44:15.721Z,24.64
2018-07-27T00:45:15.706Z,24.64
2018-07-27T00:46:15.699Z,24.64
2018-07-27T00:47:15.956Z,24.67
2018-07-27T00:48:15.699Z,24.6
2018-07-27T00:49:15.679Z,24.64
2018-07-27T00:50:15.677Z,24.56
2018-07-27T00:51:15.407Z,24.56
2018-07-27T00:52:15.664Z,24.52
2018-07-27T00:53:15.392Z,24.56
2018-07-27T00:54:15.659Z,24.49
2018-07-27T00:55:15.644Z,24.45
2018-07-27T00:56:15.641Z,24.44
2018-07-27T00:57:15.630Z,24.56
2018-07-27T00:58:15.622Z,24.44
2018-07-27T00:59:15.888Z,24.45
2018-07-27T01:00:15.605Z,24.39
2018-07-27T01:01:15.603Z,24.35
2018-07-27T01:02:15.595Z,24.31
2018-07-27T01:03:15.590Z,24.37
2018-07-27T01:04:15.590Z,24.34
2018-07-27T01:05:15.577Z,24.27
2018-07-27T01:06:15.316Z,24.39
2018-07-27T01:07:15.834Z,24.31
2018-07-27T01:08:15.819Z,24.32
2018-07-27T01:09:15.287Z,24.32
2018-07-27T01:10:15.541Z,24.27
2018-07-27T01:11:15.537Z,24.32
2018-07-27T01:12:15.529Z,24.32
2018-07-27T01:13:15.794Z,24.24
2018-07-27T01:14:15.524Z,24.26
2018-07-27T01:15:15.525Z,24.29
2018-07-27T01:16:15.238Z,24.22
2018-07-27T01:17:15.502Z,24.19
2018-07-27T01:18:15.492Z,24.16
2018-07-27T01:19:15.498Z,24.2
2018-07-27T01:20:15.214Z,24.31
2018-07-27T01:21:15.740Z,24.13
2018-07-27T01:22:15.735Z,24.16
2018-07-27T01:23:15.718Z,24.22
2018-07-27T01:24:15.711Z,24.19
2018-07-27T01:25:15.447Z,24.2
2018-07-27T01:26:15.432Z,24.17
2018-07-27T01:27:15.165Z,24.17
2018-07-27T01:28:15.156Z,24.17
2018-07-27T01:29:15.455Z,24.16
2018-07-27T01:30:15.409Z,24.16
2018-07-27T01:31:15.663Z,24.19
2018-07-27T01:32:15.395Z,24.13
2018-07-27T01:33:15.388Z,24.13
2018-07-27T01:34:15.645Z,24.16
2018-07-27T01:35:15.372Z,24.12
2018-07-27T01:36:15.631Z,24.1
2018-07-27T01:37:15.620Z,24.05
2018-07-27T01:38:15.354Z,24.05
2018-07-27T01:39:15.342Z,24.13
2018-07-27T01:40:15.337Z,24.19
2018-07-27T01:41:15.075Z,24
2018-07-27T01:42:15.335Z,24.04
2018-07-27T01:43:15.316Z,24.08
2018-07-27T01:44:15.316Z,24.05
2018-07-27T01:45:15.062Z,24.08
2018-07-27T01:46:15.037Z,24.04
2018-07-27T01:47:15.298Z,24.07
2018-07-27T01:48:15.017Z,24.01
2018-07-27T01:49:15.538Z,23.98
2018-07-27T01:50:15.270Z,24.01
2018-07-27T01:51:15.265Z,24.02
2018-07-27T01:52:15.523Z,23.97
2018-07-27T01:53:15.005Z,23.97
2018-07-27T01:54:15.242Z,24.01
2018-07-27T01:55:15.494Z,23.92
2018-07-27T01:56:15.232Z,23.92
2018-07-27T01:57:15.233Z,23.92
2018-07-27T01:58:15.217Z,23.87
2018-07-27T01:59:15.469Z,23.89
2018-07-27T02:00:15.467Z,23.86
2018-07-27T02:01:15.464Z,23.83
2018-07-27T02:02:15.455Z,23.83
2018-07-27T02:03:15.447Z,23.79
2018-07-27T02:04:15.177Z,23.76
2018-07-27T02:05:15.217Z,23.76
2018-07-27T02:06:15.423Z,23.8
2018-07-27T02:07:15.467Z,23.8
2018-07-27T02:08:14.878Z,23.75
2018-07-27T02:09:15.136Z,23.67
2018-07-27T02:10:14.865Z,23.68
2018-07-27T02:11:15.175Z,23.7
2018-07-27T02:12:15.115Z,23.64
2018-07-27T02:13:15.113Z,23.58
2018-07-27T02:14:15.300Z,23.58
2018-07-27T02:15:15.141Z,23.61
2018-07-27T02:16:15.344Z,23.52
2018-07-27T02:17:15.084Z,23.52
2018-07-27T02:18:15.064Z,23.49
2018-07-27T02:19:15.061Z,23.46
2018-07-27T02:20:14.790Z,23.38
2018-07-27T02:21:15.332Z,23.42
2018-07-27T02:22:15.302Z,23.46
2018-07-27T02:23:15.305Z,23.39
2018-07-27T02:24:15.032Z,23.42
2018-07-27T02:25:15.289Z,23.42
2018-07-27T02:26:15.279Z,23.31
2018-07-27T02:27:14.742Z,23.26
2018-07-27T02:28:15.261Z,23.24
2018-07-27T02:29:15.003Z,23.27
2018-07-27T02:30:14.988Z,23.27
2018-07-27T02:31:14.974Z,23.24
2018-07-27T02:32:14.961Z,23.19
2018-07-27T02:33:14.971Z,23.17
2018-07-27T02:34:14.961Z,23.12
2018-07-27T02:35:14.686Z,23.11
2018-07-27T02:36:14.945Z,23.19
2018-07-27T02:37:14.946Z,23.11
2018-07-27T02:38:14.924Z,23.05
2018-07-27T02:39:14.977Z,23.01
2018-07-27T02:40:15.252Z,23.04
2018-07-27T02:41:14.907Z,22.96
2018-07-27T02:42:14.897Z,22.97
2018-07-27T02:43:15.153Z,22.92
2018-07-27T02:44:14.613Z,22.87
2018-07-27T02:45:15.143Z,22.86
2018-07-27T02:46:14.606Z,22.82
2018-07-27T02:47:14.858Z,22.87
2018-07-27T02:48:14.588Z,22.93
2018-07-27T02:49:15.108Z,22.82
2018-07-27T02:50:15.110Z,22.8
2018-07-27T02:51:15.259Z,22.8
2018-07-27T02:52:15.090Z,22.82
2018-07-27T02:53:14.812Z,22.8
2018-07-27T02:54:14.801Z,22.68
2018-07-27T02:55:14.530Z,22.72
2018-07-27T02:56:14.794Z,22.62
2018-07-27T02:57:15.054Z,22.65
2018-07-27T02:58:15.043Z,22.71
2018-07-27T02:59:14.763Z,22.6
2018-07-27T03:00:14.763Z,22.54
2018-07-27T03:01:14.750Z,22.69
2018-07-27T03:02:15.005Z,22.62
2018-07-27T03:03:14.469Z,22.62
2018-07-27T03:04:14.729Z,22.54
2018-07-27T03:05:14.722Z,22.59
2018-07-27T03:06:14.974Z,22.49
2018-07-27T03:07:14.972Z,22.47
2018-07-27T03:08:14.429Z,22.43
2018-07-27T03:09:14.970Z,22.29
2018-07-27T03:10:14.684Z,22.29
2018-07-27T03:11:14.949Z,22.28
2018-07-27T03:12:14.659Z,22.35
2018-07-27T03:13:14.913Z,22.25
2018-07-27T03:14:14.658Z,22.25
2018-07-27T03:15:14.899Z,22.14
2018-07-27T03:16:14.635Z,22.22
2018-07-27T03:17:14.930Z,22.16
2018-07-27T03:18:14.347Z,22.04
2018-07-27T03:19:14.606Z,22.09
2018-07-27T03:20:14.874Z,22.06
2018-07-27T03:21:14.328Z,22.1
2018-07-27T03:22:14.582Z,22.01
2018-07-27T03:23:14.841Z,22.02
2018-07-27T03:24:14.563Z,22.04
2018-07-27T03:25:14.556Z,22.06
2018-07-27T03:26:14.282Z,22.07
2018-07-27T03:27:14.546Z,21.99
2018-07-27T03:28:14.541Z,21.99
2018-07-27T03:29:14.788Z,21.97
2018-07-27T03:30:14.316Z,21.95
2018-07-27T03:31:14.771Z,21.83
2018-07-27T03:32:14.243Z,21.95
2018-07-27T03:33:14.494Z,21.91
2018-07-27T03:34:14.483Z,21.94
2018-07-27T03:35:14.479Z,21.95
2018-07-27T03:36:14.209Z,21.91
2018-07-27T03:37:14.452Z,21.85
2018-07-27T03:38:14.206Z,21.82
2018-07-27T03:39:14.444Z,21.92
2018-07-27T03:40:14.443Z,21.83
2018-07-27T03:41:14.435Z,21.82
2018-07-27T03:42:14.537Z,21.79
2018-07-27T03:43:14.409Z,21.83
2018-07-27T03:44:14.132Z,21.82
2018-07-27T03:45:14.663Z,21.78
2018-07-27T03:46:14.390Z,21.76
2018-07-27T03:47:14.372Z,21.83
2018-07-27T03:48:14.110Z,21.74
2018-07-27T03:49:14.354Z,21.72
2018-07-27T03:50:14.651Z,21.74
2018-07-27T03:51:14.337Z,21.76
2018-07-27T03:52:14.333Z,21.72
2018-07-27T03:53:14.583Z,21.66
2018-07-27T03:54:14.052Z,21.63
2018-07-27T03:55:14.305Z,21.69
2018-07-27T03:56:14.033Z,21.63
2018-07-27T03:57:14.283Z,21.6
2018-07-27T03:58:14.278Z,21.56
2018-07-27T03:59:14.007Z,21.6
2018-07-27T04:00:14.526Z,21.61
2018-07-27T04:01:14.254Z,21.51
2018-07-27T04:02:14.347Z,21.6
2018-07-27T04:03:14.242Z,21.53
2018-07-27T04:04:14.512Z,21.54
2018-07-27T04:05:14.228Z,21.51
2018-07-27T04:06:14.213Z,21.56
2018-07-27T04:07:14.489Z,21.48
2018-07-27T04:08:13.933Z,21.45
2018-07-27T04:09:14.453Z,21.53
2018-07-27T04:10:14.192Z,21.54
2018-07-27T04:11:14.174Z,21.6
2018-07-27T04:12:14.162Z,21.57
2018-07-27T04:13:14.175Z,21.51
2018-07-27T04:14:14.612Z,21.54
2018-07-27T04:15:14.401Z,21.57
2018-07-27T04:16:14.390Z,21.57
2018-07-27T04:17:14.385Z,21.59
2018-07-27T04:18:14.140Z,21.59
2018-07-27T04:19:14.099Z,21.59
2018-07-27T04:20:14.090Z,21.5
2018-07-27T04:21:14.348Z,21.51
2018-07-27T04:22:14.079Z,21.57
2018-07-27T04:23:14.066Z,21.56
2018-07-27T04:24:14.057Z,21.56
2018-07-27T04:25:14.051Z,21.59
2018-07-27T04:26:14.441Z,21.57
2018-07-27T04:27:13.766Z,21.6
2018-07-27T04:28:14.287Z,21.61
2018-07-27T04:29:14.017Z,21.61
2018-07-27T04:30:13.746Z,21.66
2018-07-27T04:31:13.998Z,21.63
2018-07-27T04:32:14.249Z,21.66
2018-07-27T04:33:13.990Z,21.72
2018-07-27T04:34:14.238Z,21.66
2018-07-27T04:35:13.965Z,21.66
2018-07-27T04:36:13.952Z,21.64
2018-07-27T04:37:13.945Z,21.71
2018-07-27T04:38:13.936Z,21.76
2018-07-27T04:39:13.668Z,21.74
2018-07-27T04:40:13.665Z,21.75
2018-07-27T04:41:14.189Z,21.75
2018-07-27T04:42:13.910Z,21.74
2018-07-27T04:43:14.160Z,21.88
2018-07-27T04:44:13.893Z,21.79
2018-07-27T04:45:13.621Z,21.81
2018-07-27T04:46:13.615Z,21.91
2018-07-27T04:47:13.862Z,21.88
2018-07-27T04:48:14.120Z,21.83
2018-07-27T04:49:13.852Z,21.92
2018-07-27T04:50:13.834Z,21.98
2018-07-27T04:51:14.091Z,22.04
2018-07-27T04:52:13.818Z,21.97
2018-07-27T04:53:14.074Z,22.02
2018-07-27T04:54:13.800Z,22.06
2018-07-27T04:55:13.787Z,22.13
2018-07-27T04:56:14.127Z,22.09
2018-07-27T04:57:13.513Z,22.06
2018-07-27T04:58:14.038Z,22.07
2018-07-27T04:59:13.755Z,22.1
2018-07-27T05:00:13.750Z,22.19
2018-07-27T05:01:13.480Z,22.14
2018-07-27T05:02:14.009Z,22.2
2018-07-27T05:03:13.722Z,22.35
2018-07-27T05:04:13.987Z,22.31
2018-07-27T05:05:13.717Z,22.34
2018-07-27T05:06:13.699Z,22.34
2018-07-27T05:07:13.429Z,22.35
2018-07-27T05:08:13.685Z,22.39
2018-07-27T05:09:13.677Z,22.52
2018-07-27T05:10:13.402Z,22.47
2018-07-27T05:11:13.927Z,22.46
2018-07-27T05:12:13.917Z,22.5
2018-07-27T05:13:13.378Z,22.56
2018-07-27T05:14:13.641Z,22.57
2018-07-27T05:15:13.629Z,22.67
2018-07-27T05:16:13.623Z,22.62
2018-07-27T05:17:13.613Z,22.68
2018-07-27T05:18:13.354Z,22.72
2018-07-27T05:19:13.595Z,22.83
2018-07-27T05:20:13.594Z,22.75
2018-07-27T05:21:13.316Z,22.87
2018-07-27T05:22:13.572Z,22.87
2018-07-27T05:23:13.564Z,22.92
2018-07-27T05:24:13.860Z,22.89
2018-07-27T05:25:13.288Z,22.94
2018-07-27T05:26:13.278Z,23.02
2018-07-27T05:27:13.794Z,22.93
2018-07-27T05:28:13.788Z,23.05
2018-07-27T05:29:13.518Z,23.11
2018-07-27T05:30:13.510Z,23.11
2018-07-27T05:31:13.501Z,23.19
2018-07-27T05:32:13.761Z,23.23
2018-07-27T05:33:13.483Z,23.27
2018-07-27T05:34:13.509Z,23.23
2018-07-27T05:35:13.472Z,23.27
2018-07-27T05:36:13.724Z,23.27
2018-07-27T05:37:13.455Z,23.38
2018-07-27T05:38:13.715Z,23.34
2018-07-27T05:39:13.435Z,23.43
2018-07-27T05:40:13.424Z,23.42
2018-07-27T05:41:13.424Z,23.38
2018-07-27T05:42:13.418Z,23.47
2018-07-27T05:43:13.404Z,23.53
2018-07-27T05:44:13.405Z,23.5
2018-07-27T05:45:13.654Z,23.6
2018-07-27T05:46:13.388Z,23.6
2018-07-27T05:47:13.819Z,23.62
2018-07-27T05:48:13.109Z,23.8
2018-07-27T05:49:13.359Z,23.75
2018-07-27T05:50:13.091Z,23.82
2018-07-27T05:51:13.610Z,23.9
2018-07-27T05:52:13.077Z,23.86
2018-07-27T05:53:13.120Z,23.92
2018-07-27T05:54:13.327Z,23.94
2018-07-27T05:55:13.058Z,24.07
2018-07-27T05:56:13.588Z,24.02
2018-07-27T05:57:13.045Z,24.13
2018-07-27T05:58:13.562Z,24.17
2018-07-27T05:59:13.296Z,24.34
2018-07-27T06:00:13.018Z,24.37
2018-07-27T06:01:13.375Z,24.37
2018-07-27T06:02:15.393Z,24.47
2018-07-27T06:03:13.261Z,24.49
2018-07-27T06:04:13.265Z,24.49
2018-07-27T06:05:13.245Z,24.52
2018-07-27T06:06:13.237Z,24.56
2018-07-27T06:07:13.495Z,24.56
2018-07-27T06:08:13.224Z,24.64
2018-07-27T06:09:13.485Z,24.71
2018-07-27T06:10:13.209Z,24.79
2018-07-27T06:11:13.654Z,24.76
2018-07-27T06:12:13.459Z,24.83
2018-07-27T06:13:13.192Z,24.88
2018-07-27T06:14:13.389Z,24.94
2018-07-27T06:15:12.921Z,24.95
2018-07-27T06:16:13.169Z,24.97
2018-07-27T06:17:12.900Z,24.91
2018-07-27T06:18:14.018Z,25.07
2018-07-27T06:19:13.147Z,25
2018-07-27T06:20:13.410Z,25
2018-07-27T06:21:13.139Z,24.98
2018-07-27T06:22:13.132Z,25.09
2018-07-27T06:23:13.385Z,25.07
2018-07-27T06:24:12.900Z,25.17
2018-07-27T06:25:13.371Z,25.15
2018-07-27T06:26:13.368Z,25.19
2018-07-27T06:27:13.104Z,25.24
2018-07-27T06:28:13.211Z,25.22
2018-07-27T06:29:13.536Z,25.31
2018-07-27T06:30:13.103Z,25.43
2018-07-27T06:31:13.348Z,25.32
2018-07-27T06:32:13.061Z,25.43
2018-07-27T06:33:12.794Z,25.43
2018-07-27T06:34:13.049Z,25.54
2018-07-27T06:35:12.789Z,25.52
2018-07-27T06:36:13.302Z,25.56
2018-07-27T06:37:13.039Z,25.62
2018-07-27T06:38:13.029Z,25.64
2018-07-27T06:39:13.520Z,25.71
2018-07-27T06:40:13.015Z,25.72
2018-07-27T06:41:13.279Z,25.69
2018-07-27T06:42:13.259Z,25.77
2018-07-27T06:43:13.006Z,25.79
2018-07-27T06:44:13.254Z,25.82
2018-07-27T06:45:13.099Z,25.75
2018-07-27T06:46:13.242Z,25.8
2018-07-27T06:47:12.700Z,25.89
2018-07-27T06:48:12.967Z,25.93
2018-07-27T06:49:12.968Z,26.06
2018-07-27T06:50:12.945Z,25.98
2018-07-27T06:51:12.968Z,26.09
2018-07-27T06:52:12.935Z,26.06
2018-07-27T06:53:12.670Z,26.25
2018-07-27T06:54:12.923Z,26.29
2018-07-27T06:55:13.181Z,26.39
2018-07-27T06:56:12.916Z,26.39
2018-07-27T06:57:12.645Z,26.36
2018-07-27T06:58:12.632Z,26.43
2018-07-27T06:59:12.901Z,26.49
2018-07-27T07:00:12.623Z,26.5
2018-07-27T07:01:12.618Z,26.5
2018-07-27T07:02:12.873Z,26.62
2018-07-27T07:03:13.140Z,26.61
2018-07-27T07:04:12.868Z,26.67
2018-07-27T07:05:12.870Z,26.68
2018-07-27T07:06:12.598Z,26.8
2018-07-27T07:07:13.111Z,26.79
2018-07-27T07:08:12.847Z,26.83
2018-07-27T07:09:13.128Z,26.86
2018-07-27T07:10:13.095Z,26.83
2018-07-27T07:11:13.091Z,26.99
2018-07-27T07:12:13.088Z,26.96
2018-07-27T07:13:12.551Z,27.1
2018-07-27T07:14:12.804Z,27.02
2018-07-27T07:15:12.801Z,27.13
2018-07-27T07:16:12.788Z,27.11
2018-07-27T07:17:13.056Z,27.16
2018-07-27T07:18:12.789Z,27.28
2018-07-27T07:19:13.047Z,27.24
2018-07-27T07:20:12.780Z,27.31
2018-07-27T07:21:12.506Z,27.31
2018-07-27T07:22:12.496Z,27.41
2018-07-27T07:23:12.759Z,27.31
2018-07-27T07:24:12.748Z,27.47
2018-07-27T07:25:12.503Z,27.47
2018-07-27T07:26:13.586Z,27.51
2018-07-27T07:27:12.732Z,27.51
2018-07-27T07:28:12.728Z,27.53
2018-07-27T07:29:13.007Z,27.62
2018-07-27T07:30:12.451Z,27.67
2018-07-27T07:31:12.985Z,27.69
2018-07-27T07:32:12.971Z,27.62
2018-07-27T07:33:12.807Z,27.71
2018-07-27T07:34:12.699Z,27.77
2018-07-27T07:35:12.695Z,27.82
2018-07-27T07:36:12.682Z,27.89
2018-07-27T07:37:12.976Z,28.07
2018-07-27T07:38:12.681Z,28.85
2018-07-27T07:39:13.172Z,29.97
2018-07-27T07:40:12.934Z,30.87
2018-07-27T07:41:12.667Z,31.82
2018-07-27T07:42:12.703Z,32.61
2018-07-27T07:43:12.923Z,33.19
2018-07-27T07:44:12.921Z,33.71
2018-07-27T07:45:13.202Z,34.48
2018-07-27T07:46:12.913Z,34.81
2018-07-27T07:47:12.646Z,35.35
2018-07-27T07:48:12.640Z,35.66
2018-07-27T07:49:12.383Z,36.2
2018-07-27T07:50:12.637Z,36.58
2018-07-27T07:51:12.378Z,36.99
2018-07-27T07:52:12.903Z,37.23
2018-07-27T07:53:12.900Z,37.46
2018-07-27T07:54:12.632Z,37.78
2018-07-27T07:55:12.636Z,38.03
2018-07-27T07:56:12.372Z,38.38
2018-07-27T07:57:12.904Z,38.57
2018-07-27T07:58:12.901Z,38.83
2018-07-27T07:59:12.640Z,39.15
2018-07-27T08:00:12.648Z,39.42
2018-07-27T08:01:12.373Z,39.58
2018-07-27T08:02:12.379Z,39.77
2018-07-27T08:03:12.644Z,40.02
2018-07-27T08:04:12.758Z,40.05
2018-07-27T08:05:12.923Z,40.26
2018-07-27T08:06:12.656Z,40.45
2018-07-27T08:07:12.917Z,40.54
2018-07-27T08:08:12.657Z,40.74
2018-07-27T08:09:12.922Z,40.88
2018-07-27T08:10:12.661Z,41.1
2018-07-27T08:11:12.740Z,41.05
2018-07-27T08:12:12.666Z,41.13
2018-07-27T08:13:12.679Z,41.2
2018-07-27T08:14:12.937Z,41.2
2018-07-27T08:15:12.686Z,41.37
2018-07-27T08:16:12.940Z,41.27
2018-07-27T08:17:12.693Z,41.47
2018-07-27T08:18:12.432Z,41.7
2018-07-27T08:19:12.978Z,41.94
2018-07-27T08:20:12.967Z,42.25
2018-07-27T08:21:12.982Z,42.22
2018-07-27T08:22:12.703Z,42.22
2018-07-27T08:23:12.711Z,42.37
2018-07-27T08:24:12.989Z,42.35
2018-07-27T08:25:12.459Z,42.37
2018-07-27T08:26:12.993Z,42.37
2018-07-27T08:27:12.734Z,42.15
2018-07-27T08:28:12.737Z,41.52
2018-07-27T08:29:13.060Z,40.76
2018-07-27T08:30:12.748Z,40.26
2018-07-27T08:31:13.029Z,39.56
2018-07-27T08:32:12.488Z,39.03
2018-07-27T08:33:12.759Z,38.46
2018-07-27T08:34:12.766Z,38.11
2018-07-27T08:35:12.770Z,37.74
2018-07-27T08:36:12.511Z,37.59
2018-07-27T08:37:12.776Z,37.76
2018-07-27T08:38:13.058Z,38.05
2018-07-27T08:39:12.787Z,38.45
2018-07-27T08:40:12.803Z,38.67
2018-07-27T08:41:12.800Z,38.96
2018-07-27T08:42:12.802Z,39.33
2018-07-27T08:43:12.544Z,39.24
2018-07-27T08:44:13.090Z,39.09
2018-07-27T08:45:13.084Z,38.95
2018-07-27T08:46:12.827Z,38.24
2018-07-27T08:47:13.238Z,37.77
2018-07-27T08:48:12.830Z,37.21
2018-07-27T08:49:12.572Z,36.87
2018-07-27T08:50:12.842Z,36.43
2018-07-27T08:51:12.844Z,36.06
2018-07-27T08:52:12.844Z,35.79
2018-07-27T08:53:12.850Z,35.66
2018-07-27T08:54:13.115Z,35.39
2018-07-27T08:55:12.883Z,35.3
2018-07-27T08:56:12.875Z,35.14
2018-07-27T08:57:13.128Z,34.94
2018-07-27T08:58:12.865Z,34.74
2018-07-27T08:59:13.132Z,34.46
2018-07-27T09:00:12.603Z,34.34
2018-07-27T09:01:13.140Z,34.16
2018-07-27T09:02:12.871Z,34.2
2018-07-27T09:03:13.144Z,34.11
2018-07-27T09:04:13.137Z,34.16
2018-07-27T09:05:12.888Z,33.94
2018-07-27T09:06:12.885Z,33.73
2018-07-27T09:07:13.141Z,33.67
2018-07-27T09:08:12.878Z,33.55
2018-07-27T09:09:12.886Z,33.46
2018-07-27T09:10:12.931Z,33.53
2018-07-27T09:11:13.143Z,33.45
2018-07-27T09:12:13.150Z,33.45
2018-07-27T09:13:13.148Z,33.37
2018-07-27T09:14:12.616Z,33.49
2018-07-27T09:15:12.885Z,33.49
2018-07-27T09:16:12.881Z,33.61
2018-07-27T09:17:12.657Z,33.61
2018-07-27T09:18:12.920Z,33.71
2018-07-27T09:19:12.621Z,33.73
2018-07-27T09:20:12.616Z,33.89
2018-07-27T09:21:12.890Z,34
2018-07-27T09:22:13.148Z,34.34
2018-07-27T09:23:13.148Z,34.54
2018-07-27T09:24:12.700Z,34.72
2018-07-27T09:25:13.162Z,34.84
2018-07-27T09:26:13.155Z,34.95
2018-07-27T09:27:12.887Z,35.29
2018-07-27T09:28:12.873Z,35.77
2018-07-27T09:29:12.622Z,36.03
2018-07-27T09:30:12.876Z,36.12
2018-07-27T09:31:12.890Z,36.04
2018-07-27T09:32:13.198Z,35.76
2018-07-27T09:33:12.621Z,35.54
2018-07-27T09:34:12.669Z,35.33
2018-07-27T09:35:13.345Z,35.1
2018-07-27T09:36:12.886Z,35.02
2018-07-27T09:37:13.138Z,34.88
2018-07-27T09:38:13.137Z,34.73
2018-07-27T09:39:13.137Z,34.53
2018-07-27T09:40:12.612Z,34.5
2018-07-27T09:41:13.142Z,34.44
2018-07-27T09:42:13.131Z,34.26
2018-07-27T09:43:12.882Z,34.14
2018-07-27T09:44:13.139Z,34.11
2018-07-27T09:45:13.129Z,34.01
2018-07-27T09:46:12.603Z,34.02
2018-07-27T09:47:12.881Z,34
2018-07-27T09:48:12.600Z,33.89
2018-07-27T09:49:13.127Z,33.73
2018-07-27T09:50:12.868Z,33.7
2018-07-27T09:51:12.886Z,33.74
2018-07-27T09:52:12.863Z,33.67
2018-07-27T09:53:12.859Z,33.63
2018-07-27T09:54:13.137Z,33.67
2018-07-27T09:55:12.883Z,33.58
2018-07-27T09:56:13.127Z,33.58
2018-07-27T09:57:13.131Z,33.55
2018-07-27T09:58:12.855Z,33.55
2018-07-27T09:59:12.849Z,33.52
2018-07-27T10:00:12.849Z,33.6
2018-07-27T10:01:12.884Z,33.64
2018-07-27T10:02:13.110Z,33.61
2018-07-27T10:03:13.104Z,33.61
2018-07-27T10:04:12.577Z,33.71
2018-07-27T10:05:12.844Z,33.85
2018-07-27T10:06:13.110Z,33.97
2018-07-27T10:07:12.577Z,34.09
2018-07-27T10:08:13.113Z,34.17
2018-07-27T10:09:12.577Z,34.05
2018-07-27T10:10:12.843Z,34.04
2018-07-27T10:11:12.847Z,34.04
2018-07-27T10:12:12.830Z,33.97
2018-07-27T10:13:12.567Z,34.05
2018-07-27T10:14:12.568Z,34.22
2018-07-27T10:15:12.827Z,34.31
2018-07-27T10:16:12.828Z,34.24
2018-07-27T10:17:13.094Z,34.24
2018-07-27T10:18:12.817Z,34.14
2018-07-27T10:19:12.823Z,34.07
2018-07-27T10:20:13.086Z,34.04
2018-07-27T10:21:13.135Z,34.04
2018-07-27T10:22:13.076Z,34.05
2018-07-27T10:23:12.814Z,34
2018-07-27T10:24:12.551Z,33.98
2018-07-27T10:25:13.076Z,34.02
2018-07-27T10:26:13.076Z,33.97
2018-07-27T10:27:12.806Z,34
2018-07-27T10:28:12.798Z,33.9
2018-07-27T10:29:12.798Z,33.83
2018-07-27T10:30:13.065Z,33.89
2018-07-27T10:31:12.857Z,34.13
2018-07-27T10:32:12.804Z,34.17
2018-07-27T10:33:13.068Z,34.22
2018-07-27T10:34:13.056Z,34.31
2018-07-27T10:35:12.534Z,34.41
2018-07-27T10:36:12.531Z,34.51
2018-07-27T10:37:12.531Z,34.79
2018-07-27T10:38:12.794Z,34.96
2018-07-27T10:39:13.063Z,35.37
2018-07-27T10:40:13.062Z,35.73
2018-07-27T10:41:13.067Z,36.19
2018-07-27T10:42:12.542Z,36.94
2018-07-27T10:43:13.080Z,37.51
2018-07-27T10:44:12.543Z,37.86
2018-07-27T10:45:13.129Z,38.27
2018-07-27T10:46:12.821Z,38.58
2018-07-27T10:47:13.088Z,39.02
2018-07-27T10:48:13.091Z,39.25
2018-07-27T10:49:12.568Z,39.59
2018-07-27T10:50:12.957Z,39.65
2018-07-27T10:51:12.572Z,39.61
2018-07-27T10:52:12.849Z,39.24
2018-07-27T10:53:13.131Z,39.49
2018-07-27T10:54:12.856Z,39.56
2018-07-27T10:55:12.867Z,39.7
2018-07-27T10:56:13.137Z,39.9
2018-07-27T10:57:13.143Z,40.3
2018-07-27T10:58:12.882Z,40.64
2018-07-27T10:59:13.153Z,40.8
2018-07-27T11:00:13.158Z,41
2018-07-27T11:01:12.927Z,41.27
2018-07-27T11:02:13.176Z,41.68
2018-07-27T11:03:13.193Z,41.97
2018-07-27T11:04:13.188Z,42.01
2018-07-27T11:05:12.935Z,42.16
2018-07-27T11:06:12.685Z,42.32
2018-07-27T11:07:13.214Z,42.35
2018-07-27T11:08:12.701Z,42.58
2018-07-27T11:09:13.235Z,42.63
2018-07-27T11:10:13.239Z,42.69
2018-07-27T11:11:13.269Z,42.68
2018-07-27T11:12:13.251Z,42.76
2018-07-27T11:13:13.002Z,42.94
2018-07-27T11:14:13.275Z,43.16
2018-07-27T11:15:12.772Z,43.22
2018-07-27T11:16:12.758Z,43.38
2018-07-27T11:17:12.804Z,43.44
2018-07-27T11:18:13.052Z,43.48
2018-07-27T11:19:13.315Z,43.56
2018-07-27T11:20:13.359Z,43.41
2018-07-27T11:21:13.075Z,43.53
2018-07-27T11:22:12.815Z,43.53
2018-07-27T11:23:13.097Z,43.65
2018-07-27T11:24:12.842Z,43.49
2018-07-27T11:25:13.114Z,43.3
2018-07-27T11:26:12.857Z,43.26
2018-07-27T11:27:13.136Z,42.9
2018-07-27T11:28:13.414Z,42.69
2018-07-27T11:29:13.149Z,42.29
2018-07-27T11:30:13.442Z,42.22
2018-07-27T11:31:12.924Z,42.29
2018-07-27T11:32:12.924Z,42.5
2018-07-27T11:33:12.927Z,42.76
2018-07-27T11:34:13.202Z,42.95
2018-07-27T11:35:13.483Z,43.19
2018-07-27T11:36:12.959Z,43.45
2018-07-27T11:37:13.398Z,43.63
2018-07-27T11:38:13.240Z,43.87
2018-07-27T11:39:13.248Z,43.97
2018-07-27T11:40:13.273Z,44.13
2018-07-27T11:41:13.533Z,44.35
2018-07-27T11:42:13.581Z,44.45
2018-07-27T11:43:13.304Z,44.42
2018-07-27T11:44:13.305Z,44.45
2018-07-27T11:45:13.317Z,44.39
2018-07-27T11:46:13.324Z,44.2
2018-07-27T11:47:13.073Z,44.02
2018-07-27T11:48:13.607Z,44.21
2018-07-27T11:49:13.620Z,44.28
2018-07-27T11:50:13.110Z,44.33
2018-07-27T11:51:13.112Z,44.28
2018-07-27T11:52:13.657Z,44.28
2018-07-27T11:53:13.399Z,44.5
2018-07-27T11:54:13.410Z,44.58
2018-07-27T11:55:13.425Z,44.61
2018-07-27T11:56:13.163Z,44.61
2018-07-27T11:57:13.449Z,44.75
2018-07-27T11:58:13.455Z,44.94
2018-07-27T11:59:13.733Z,45.02
2018-07-27T12:00:13.520Z,45.05
2018-07-27T12:01:13.225Z,45.18
2018-07-27T12:02:13.501Z,45.32
2018-07-27T12:03:13.245Z,45.59
2018-07-27T12:04:13.525Z,45.54
2018-07-27T12:05:13.798Z,45.52
2018-07-27T12:06:13.545Z,45.56
2018-07-27T12:07:14.104Z,45.27
2018-07-27T12:08:13.304Z,45.16
2018-07-27T12:09:13.841Z,45.15
2018-07-27T12:10:13.325Z,44.94
2018-07-27T12:11:13.865Z,45
2018-07-27T12:12:13.345Z,45.11
2018-07-27T12:13:13.889Z,45.18
2018-07-27T12:14:13.540Z,45.24
2018-07-27T12:15:13.947Z,45.37
2018-07-27T12:16:13.392Z,45.45
2018-07-27T12:17:13.402Z,45.56
2018-07-27T12:18:13.681Z,45.68
2018-07-27T12:19:13.957Z,45.76
2018-07-27T12:20:13.973Z,45.85
2018-07-27T12:21:14.071Z,46
2018-07-27T12:22:13.722Z,45.99
2018-07-27T12:23:13.994Z,46.13
2018-07-27T12:24:14.007Z,46.11
2018-07-27T12:25:14.027Z,46.11
2018-07-27T12:26:13.516Z,45.97
2018-07-27T12:27:14.215Z,45.95
2018-07-27T12:28:13.803Z,46.02
2018-07-27T12:29:13.842Z,46.03
2018-07-27T12:30:14.075Z,46.13
2018-07-27T12:31:13.830Z,46.35
2018-07-27T12:32:13.576Z,46.29
2018-07-27T12:33:13.851Z,45.64
2018-07-27T12:34:13.865Z,45.09
2018-07-27T12:35:13.918Z,44.77
2018-07-27T12:36:13.632Z,44.7
2018-07-27T12:37:14.165Z,44.84
2018-07-27T12:38:13.958Z,44.92
2018-07-27T12:39:14.192Z,45.04
2018-07-27T12:40:13.938Z,44.87
2018-07-27T12:41:13.945Z,44.21
2018-07-27T12:42:14.218Z,43.8
2018-07-27T12:43:13.965Z,43.65
2018-07-27T12:44:14.239Z,43.61
2018-07-27T12:45:13.727Z,43.8
2018-07-27T12:46:14.271Z,44.13
2018-07-27T12:47:14.278Z,44.23
2018-07-27T12:48:14.025Z,44.21
2018-07-27T12:49:14.312Z,44.05
2018-07-27T12:50:14.308Z,44.1
2018-07-27T12:51:13.838Z,44.2
2018-07-27T12:52:14.074Z,44.28
2018-07-27T12:53:13.824Z,44.18
2018-07-27T12:54:14.092Z,44.28
2018-07-27T12:55:14.366Z,44.52